CEB858 RPMZ-RPLL
Flight info
| Callsign | CEB858 |
|---|---|
| Flight time | N/A |
| Altitude | 36000 |
| Route | BURCO1W BURCO W3 IOO B472 IBAGO IBAGO7R |
| Aircraft | A20N/M-SDE2E3FGHIJ1RWXY/LB1 |
Departure
| Time | 2026-04-20 15:15 |
|---|---|
| Airport | Zamboanga International Airport (RPMZ) |
Arrival
| Time | N/A |
|---|---|
| Airport | Ninoy Aquino International Airport (RPLL) |
| Time | Latitude | Longitude | Altitude | Speed | Heading |
|---|---|---|---|---|---|
| 2026-04-20 15:01 | 6.92051 | 122.06186 | 59 ft | 0 kts | 155° |
| 2026-04-20 15:05 | 6.92048 | 122.06188 | 59 ft | 0 kts | 146° |
| 2026-04-20 15:05 | 6.92048 | 122.06192 | 59 ft | 0 kts | 83° |
| 2026-04-20 15:06 | 6.92052 | 122.06194 | 59 ft | 1 kts | 358° |
| 2026-04-20 15:06 | 6.92078 | 122.06182 | 59 ft | 5 kts | 334° |
| 2026-04-20 15:06 | 6.92110 | 122.06162 | 59 ft | 4 kts | 304° |
| 2026-04-20 15:06 | 6.92116 | 122.06119 | 59 ft | 7 kts | 272° |
| 2026-04-20 15:07 | 6.92128 | 122.06065 | 59 ft | 7 kts | 305° |
| 2026-04-20 15:07 | 6.92158 | 122.06038 | 59 ft | 5 kts | 320° |
| 2026-04-20 15:07 | 6.92189 | 122.06012 | 59 ft | 6 kts | 320° |
| 2026-04-20 15:07 | 6.92223 | 122.06001 | 59 ft | 3 kts | 18° |
| 2026-04-20 15:08 | 6.92237 | 122.06025 | 59 ft | 4 kts | 84° |
| 2026-04-20 15:08 | 6.92235 | 122.06064 | 59 ft | 6 kts | 95° |
| 2026-04-20 15:08 | 6.92232 | 122.06111 | 59 ft | 7 kts | 93° |
| 2026-04-20 15:08 | 6.92229 | 122.06167 | 59 ft | 8 kts | 93° |
| 2026-04-20 15:09 | 6.92225 | 122.06231 | 59 ft | 9 kts | 93° |
| 2026-04-20 15:09 | 6.92221 | 122.06303 | 59 ft | 10 kts | 94° |
| 2026-04-20 15:09 | 6.92216 | 122.06380 | 59 ft | 11 kts | 94° |
| 2026-04-20 15:09 | 6.92210 | 122.06464 | 59 ft | 12 kts | 94° |
| 2026-04-20 15:10 | 6.92204 | 122.06552 | 59 ft | 13 kts | 94° |
| 2026-04-20 15:10 | 6.92198 | 122.06646 | 59 ft | 13 kts | 94° |
| 2026-04-20 15:10 | 6.92192 | 122.06742 | 59 ft | 14 kts | 94° |
| 2026-04-20 15:10 | 6.92185 | 122.06841 | 59 ft | 14 kts | 93° |
| 2026-04-20 15:11 | 6.92180 | 122.06921 | 59 ft | 5 kts | 99° |
| 2026-04-20 15:11 | 6.92170 | 122.06949 | 59 ft | 3 kts | 111° |
| 2026-04-20 15:11 | 6.92164 | 122.06976 | 59 ft | 3 kts | 94° |
| 2026-04-20 15:11 | 6.92161 | 122.07007 | 59 ft | 4 kts | 94° |
| 2026-04-20 15:12 | 6.92159 | 122.07046 | 59 ft | 6 kts | 94° |
| 2026-04-20 15:12 | 6.92159 | 122.07085 | 59 ft | 4 kts | 75° |
| 2026-04-20 15:12 | 6.92171 | 122.07111 | 59 ft | 4 kts | 64° |
| 2026-04-20 15:12 | 6.92175 | 122.07124 | 59 ft | 0 kts | 120° |
| 2026-04-20 15:13 | 6.92169 | 122.07123 | 59 ft | 1 kts | 229° |
| 2026-04-20 15:13 | 6.92167 | 122.07104 | 59 ft | 0 kts | 275° |
| 2026-04-20 15:14 | 6.92176 | 122.06986 | 59 ft | 49 kts | 274° |
| 2026-04-20 15:14 | 6.92216 | 122.06383 | 60 ft | 118 kts | 273° |
| 2026-04-20 15:14 | 6.92279 | 122.05376 | 126 ft | 164 kts | 272° |
| 2026-04-20 15:15 | 6.92352 | 122.04211 | 644 ft | 167 kts | 274° |
| 2026-04-20 15:15 | 6.92417 | 122.03054 | 1270 ft | 169 kts | 275° |
| 2026-04-20 15:15 | 6.92497 | 122.01862 | 1893 ft | 172 kts | 275° |
| 2026-04-20 15:15 | 6.92586 | 122.00630 | 2298 ft | 185 kts | 275° |
| 2026-04-20 15:16 | 6.92681 | 121.99278 | 2663 ft | 202 kts | 275° |
| 2026-04-20 15:16 | 6.92785 | 121.97787 | 2946 ft | 226 kts | 275° |
| 2026-04-20 15:16 | 6.92896 | 121.96158 | 3365 ft | 245 kts | 275° |
| 2026-04-20 15:16 | 6.93031 | 121.94393 | 3830 ft | 263 kts | 279° |
| 2026-04-20 15:17 | 6.93736 | 121.92659 | 4372 ft | 272 kts | 313° |
| 2026-04-20 15:17 | 6.95245 | 121.91607 | 5191 ft | 269 kts | 340° |
| 2026-04-20 15:17 | 6.97032 | 121.90982 | 5973 ft | 273 kts | 342° |
| 2026-04-20 15:17 | 6.98840 | 121.90342 | 6729 ft | 278 kts | 341° |
| 2026-04-20 15:18 | 7.00675 | 121.89671 | 7502 ft | 282 kts | 340° |
| 2026-04-20 15:18 | 7.02524 | 121.88981 | 8244 ft | 286 kts | 340° |
| 2026-04-20 15:18 | 7.04387 | 121.88277 | 8996 ft | 290 kts | 339° |
| 2026-04-20 15:18 | 7.06299 | 121.87553 | 9722 ft | 294 kts | 339° |
| 2026-04-20 15:19 | 7.08317 | 121.87139 | 10380 ft | 300 kts | 2° |
| 2026-04-20 15:19 | 7.10334 | 121.87662 | 11018 ft | 306 kts | 27° |
| 2026-04-20 15:19 | 7.12036 | 121.88978 | 11416 ft | 319 kts | 44° |
| 2026-04-20 15:19 | 7.13661 | 121.90589 | 11723 ft | 336 kts | 45° |
| 2026-04-20 15:20 | 7.15383 | 121.92300 | 12006 ft | 353 kts | 44° |
| 2026-04-20 15:20 | 7.17190 | 121.94064 | 12271 ft | 368 kts | 44° |
| 2026-04-20 15:20 | 7.19079 | 121.95881 | 12649 ft | 379 kts | 43° |
| 2026-04-20 15:20 | 7.20993 | 121.97707 | 13186 ft | 383 kts | 43° |
| 2026-04-20 15:21 | 7.22926 | 121.99550 | 13718 ft | 388 kts | 43° |
| 2026-04-20 15:21 | 7.24905 | 122.01434 | 14273 ft | 391 kts | 43° |
| 2026-04-20 15:21 | 7.26879 | 122.03315 | 14821 ft | 393 kts | 43° |
| 2026-04-20 15:21 | 7.28865 | 122.05209 | 15362 ft | 396 kts | 43° |
| 2026-04-20 15:22 | 7.30891 | 122.07142 | 15886 ft | 399 kts | 43° |
| 2026-04-20 15:22 | 7.33023 | 122.08952 | 16373 ft | 402 kts | 33° |
| 2026-04-20 15:22 | 7.35515 | 122.10179 | 16882 ft | 402 kts | 17° |
| 2026-04-20 15:22 | 7.38255 | 122.10763 | 17395 ft | 403 kts | 6° |
| 2026-04-20 15:23 | 7.41064 | 122.11077 | 17865 ft | 405 kts | 5° |
| 2026-04-20 15:23 | 7.43867 | 122.11360 | 18299 ft | 408 kts | 5° |
| 2026-04-20 15:23 | 7.46746 | 122.11654 | 18730 ft | 411 kts | 5° |
| 2026-04-20 15:23 | 7.49608 | 122.11954 | 19153 ft | 414 kts | 6° |
| 2026-04-20 15:24 | 7.52470 | 122.12260 | 19553 ft | 417 kts | 6° |
| 2026-04-20 15:24 | 7.55358 | 122.12575 | 19960 ft | 419 kts | 6° |
| 2026-04-20 15:24 | 7.58304 | 122.12898 | 20354 ft | 422 kts | 6° |
| 2026-04-20 15:24 | 7.61242 | 122.13223 | 20744 ft | 425 kts | 6° |
| 2026-04-20 15:25 | 7.64190 | 122.13550 | 21104 ft | 428 kts | 6° |
| 2026-04-20 15:25 | 7.67144 | 122.13878 | 21481 ft | 430 kts | 7° |
| 2026-04-20 15:25 | 7.70148 | 122.14211 | 21846 ft | 433 kts | 7° |
| 2026-04-20 15:25 | 7.73151 | 122.14545 | 22211 ft | 435 kts | 7° |
| 2026-04-20 15:26 | 7.76154 | 122.14879 | 22595 ft | 437 kts | 7° |
| 2026-04-20 15:26 | 7.79233 | 122.15222 | 22984 ft | 439 kts | 7° |
| 2026-04-20 15:26 | 7.82247 | 122.15557 | 23348 ft | 442 kts | 7° |
| 2026-04-20 15:26 | 7.85357 | 122.15904 | 23715 ft | 444 kts | 7° |
| 2026-04-20 15:27 | 7.88447 | 122.16247 | 24082 ft | 447 kts | 7° |
| 2026-04-20 15:27 | 7.91596 | 122.16598 | 24439 ft | 449 kts | 7° |
| 2026-04-20 15:27 | 7.94738 | 122.16947 | 24796 ft | 452 kts | 7° |
| 2026-04-20 15:27 | 7.97892 | 122.17298 | 25137 ft | 454 kts | 7° |
| 2026-04-20 15:28 | 8.01054 | 122.17650 | 25474 ft | 456 kts | 7° |
| 2026-04-20 15:28 | 8.04215 | 122.18002 | 25810 ft | 459 kts | 7° |
| 2026-04-20 15:28 | 8.07396 | 122.18356 | 26136 ft | 461 kts | 7° |
| 2026-04-20 15:28 | 8.10592 | 122.18713 | 26441 ft | 463 kts | 7° |
| 2026-04-20 15:29 | 8.13842 | 122.19074 | 26741 ft | 466 kts | 7° |
| 2026-04-20 15:29 | 8.17057 | 122.19429 | 27052 ft | 468 kts | 7° |
| 2026-04-20 15:29 | 8.20323 | 122.19791 | 27344 ft | 470 kts | 7° |
| 2026-04-20 15:29 | 8.23611 | 122.20158 | 27633 ft | 472 kts | 7° |
| 2026-04-20 15:30 | 8.26883 | 122.20521 | 27903 ft | 474 kts | 7° |
| 2026-04-20 15:30 | 8.30169 | 122.20886 | 28164 ft | 476 kts | 7° |
| 2026-04-20 15:30 | 8.33465 | 122.21253 | 28410 ft | 478 kts | 7° |
| 2026-04-20 15:30 | 8.36812 | 122.21626 | 28650 ft | 480 kts | 7° |
| 2026-04-20 15:31 | 8.40128 | 122.21995 | 28886 ft | 481 kts | 7° |
| 2026-04-20 15:31 | 8.43477 | 122.22369 | 29113 ft | 483 kts | 7° |
| 2026-04-20 15:31 | 8.46820 | 122.22742 | 29337 ft | 484 kts | 7° |
| 2026-04-20 15:31 | 8.50193 | 122.23119 | 29614 ft | 484 kts | 6° |
| 2026-04-20 15:32 | 8.53502 | 122.23488 | 29926 ft | 483 kts | 6° |
| 2026-04-20 15:32 | 8.56863 | 122.23863 | 30231 ft | 482 kts | 6° |
| 2026-04-20 15:32 | 8.60181 | 122.24233 | 30542 ft | 481 kts | 6° |
| 2026-04-20 15:32 | 8.63543 | 122.24609 | 30850 ft | 479 kts | 6° |
| 2026-04-20 15:33 | 8.66850 | 122.24977 | 31134 ft | 479 kts | 6° |
| 2026-04-20 15:33 | 8.70145 | 122.25345 | 31411 ft | 478 kts | 6° |
| 2026-04-20 15:33 | 8.73476 | 122.25717 | 31715 ft | 477 kts | 6° |
| 2026-04-20 15:33 | 8.76754 | 122.26083 | 32004 ft | 476 kts | 6° |
| 2026-04-20 15:34 | 8.80080 | 122.26454 | 32304 ft | 475 kts | 6° |
| 2026-04-20 15:34 | 8.83355 | 122.26820 | 32601 ft | 474 kts | 6° |
| 2026-04-20 15:34 | 8.86655 | 122.27188 | 32894 ft | 473 kts | 6° |
| 2026-04-20 15:34 | 8.89914 | 122.27551 | 33181 ft | 473 kts | 6° |
| 2026-04-20 15:35 | 8.93189 | 122.27917 | 33482 ft | 472 kts | 6° |
| 2026-04-20 15:35 | 8.96442 | 122.28279 | 33767 ft | 472 kts | 6° |
| 2026-04-20 15:35 | 8.99715 | 122.28645 | 34063 ft | 471 kts | 6° |
| 2026-04-20 15:35 | 9.03006 | 122.29013 | 34345 ft | 470 kts | 6° |
| 2026-04-20 15:36 | 9.06247 | 122.29376 | 34562 ft | 471 kts | 6° |
| 2026-04-20 15:36 | 9.09509 | 122.29741 | 34751 ft | 472 kts | 6° |
| 2026-04-20 15:36 | 9.12807 | 122.30109 | 34942 ft | 472 kts | 6° |
| 2026-04-20 15:36 | 9.16090 | 122.30475 | 35124 ft | 473 kts | 6° |
| 2026-04-20 15:37 | 9.19361 | 122.30840 | 35293 ft | 473 kts | 6° |
| 2026-04-20 15:37 | 9.22656 | 122.31207 | 35437 ft | 474 kts | 6° |
| 2026-04-20 15:37 | 9.25915 | 122.31572 | 35577 ft | 475 kts | 6° |
| 2026-04-20 15:37 | 9.29236 | 122.31943 | 35715 ft | 476 kts | 6° |
| 2026-04-20 15:38 | 9.32520 | 122.32311 | 35858 ft | 476 kts | 6° |
| 2026-04-20 15:38 | 9.39138 | 122.33053 | 35905 ft | 478 kts | 6° |
| 2026-04-20 15:39 | 9.45776 | 122.33797 | 35911 ft | 478 kts | 6° |
| 2026-04-20 15:39 | 9.52410 | 122.34539 | 35916 ft | 479 kts | 6° |
| 2026-04-20 15:40 | 9.59038 | 122.35281 | 35914 ft | 479 kts | 6° |
| 2026-04-20 15:40 | 9.65700 | 122.36028 | 35913 ft | 477 kts | 6° |
| 2026-04-20 15:41 | 9.72290 | 122.36767 | 35922 ft | 478 kts | 6° |
| 2026-04-20 15:41 | 9.78937 | 122.37513 | 35921 ft | 477 kts | 6° |
| 2026-04-20 15:42 | 9.85586 | 122.38257 | 35920 ft | 477 kts | 6° |
| 2026-04-20 15:42 | 9.92184 | 122.38995 | 35930 ft | 476 kts | 6° |
| 2026-04-20 15:43 | 9.98775 | 122.39732 | 35928 ft | 476 kts | 6° |
| 2026-04-20 15:43 | 10.05404 | 122.40475 | 35934 ft | 476 kts | 6° |
| 2026-04-20 15:44 | 10.11965 | 122.41212 | 35927 ft | 476 kts | 6° |
| 2026-04-20 15:44 | 10.18585 | 122.41952 | 35929 ft | 476 kts | 6° |
| 2026-04-20 15:45 | 10.25149 | 122.42687 | 35930 ft | 476 kts | 6° |
| 2026-04-20 15:45 | 10.31770 | 122.43429 | 35928 ft | 476 kts | 6° |
| 2026-04-20 15:46 | 10.38375 | 122.44170 | 35925 ft | 476 kts | 6° |
| 2026-04-20 15:46 | 10.44936 | 122.44907 | 35921 ft | 476 kts | 6° |
| 2026-04-20 15:47 | 10.51563 | 122.45651 | 35918 ft | 476 kts | 6° |
| 2026-04-20 15:47 | 10.58158 | 122.46392 | 35920 ft | 476 kts | 6° |
| 2026-04-20 15:48 | 10.64746 | 122.47132 | 35921 ft | 476 kts | 6° |
| 2026-04-20 15:48 | 10.71340 | 122.47873 | 35920 ft | 476 kts | 6° |
| 2026-04-20 15:49 | 10.77940 | 122.48332 | 35919 ft | 476 kts | 359° |
| 2026-04-20 15:49 | 10.84543 | 122.47732 | 35924 ft | 475 kts | 349° |
| 2026-04-20 15:50 | 10.90964 | 122.46023 | 35929 ft | 475 kts | 339° |
| 2026-04-20 15:50 | 10.97063 | 122.43480 | 35945 ft | 475 kts | 335° |
| 2026-04-20 15:51 | 11.03165 | 122.40800 | 35966 ft | 476 kts | 335° |
| 2026-04-20 15:51 | 11.09267 | 122.38145 | 35981 ft | 476 kts | 335° |
| 2026-04-20 15:52 | 11.15362 | 122.35516 | 35984 ft | 475 kts | 335° |
| 2026-04-20 15:52 | 11.21444 | 122.32901 | 35988 ft | 475 kts | 335° |
| 2026-04-20 15:53 | 11.30593 | 122.28951 | 35995 ft | 475 kts | 335° |
| 2026-04-20 15:53 | 11.36681 | 122.26314 | 35995 ft | 475 kts | 335° |
| 2026-04-20 15:54 | 11.42769 | 122.23673 | 35991 ft | 475 kts | 335° |
| 2026-04-20 15:54 | 11.48867 | 122.21027 | 35977 ft | 475 kts | 335° |
| 2026-04-20 15:55 | 11.54952 | 122.18386 | 35963 ft | 475 kts | 335° |
| 2026-04-20 15:55 | 11.61040 | 122.15743 | 35950 ft | 475 kts | 335° |
| 2026-04-20 15:56 | 11.67136 | 122.13094 | 35943 ft | 475 kts | 335° |
| 2026-04-20 15:56 | 11.73247 | 122.10438 | 35937 ft | 475 kts | 335° |
| 2026-04-20 15:57 | 11.79299 | 122.07806 | 35931 ft | 475 kts | 334° |
| 2026-04-20 15:57 | 11.85394 | 122.05153 | 35930 ft | 475 kts | 334° |
| 2026-04-20 15:58 | 11.91468 | 122.02508 | 35935 ft | 475 kts | 334° |
| 2026-04-20 15:58 | 11.97554 | 121.99855 | 35940 ft | 475 kts | 334° |
| 2026-04-20 15:59 | 12.03644 | 121.97201 | 35940 ft | 475 kts | 334° |
| 2026-04-20 15:59 | 12.09725 | 121.94550 | 35933 ft | 474 kts | 334° |